sensor_id;sensor_type;location;lat;lon;timestamp;temperature;humidity
27779;DHT22;30234;48.090;11.464;2022-10-16T00:01:46;11.10;99.90
27779;DHT22;30234;48.090;11.464;2022-10-16T00:05:47;11.30;99.90
27779;DHT22;30234;48.090;11.464;2022-10-16T00:09:48;11.20;99.90
27779;DHT22;30234;48.090;11.464;2022-10-16T00:13:50;11.10;99.90
27779;DHT22;30234;48.090;11.464;2022-10-16T00:17:52;11.70;99.90
27779;DHT22;30234;48.090;11.464;2022-10-16T00:21:53;11.40;99.90
27779;DHT22;30234;48.090;11.464;2022-10-16T00:26:02;10.90;99.90
27779;DHT22;30234;48.090;11.464;2022-10-16T00:30:05;11.00;99.90
27779;DHT22;30234;48.090;11.464;2022-10-16T00:34:08;10.90;99.90
27779;DHT22;30234;48.090;11.464;2022-10-16T00:38:09;10.90;99.90
27779;DHT22;30234;48.090;11.464;2022-10-16T00:42:18;10.80;99.90
27779;DHT22;30234;48.090;11.464;2022-10-16T00:46:35;11.10;99.90
27779;DHT22;30234;48.090;11.464;2022-10-16T00:50:38;11.40;99.90
27779;DHT22;30234;48.090;11.464;2022-10-16T00:54:41;11.80;99.90
27779;DHT22;30234;48.090;11.464;2022-10-16T00:58:42;12.90;99.90
27779;DHT22;30234;48.090;11.464;2022-10-16T01:02:43;11.80;99.90
27779;DHT22;30234;48.090;11.464;2022-10-16T01:24:38;12.00;99.90
27779;DHT22;30234;48.090;11.464;2022-10-16T01:28:52;12.00;99.90
27779;DHT22;30234;48.090;11.464;2022-10-16T01:37:05;11.80;99.90
27779;DHT22;30234;48.090;11.464;2022-10-16T01:41:19;11.80;99.90
27779;DHT22;30234;48.090;11.464;2022-10-16T01:45:25;11.70;99.90
27779;DHT22;30234;48.090;11.464;2022-10-16T01:49:31;11.90;99.90
27779;DHT22;30234;48.090;11.464;2022-10-16T01:53:34;11.50;99.90
27779;DHT22;30234;48.090;11.464;2022-10-16T01:57:38;11.40;99.90
27779;DHT22;30234;48.090;11.464;2022-10-16T02:01:44;11.70;99.90
27779;DHT22;30234;48.090;11.464;2022-10-16T02:05:55;11.20;99.90
27779;DHT22;30234;48.090;11.464;2022-10-16T02:09:57;11.10;99.90
27779;DHT22;30234;48.090;11.464;2022-10-16T02:14:04;11.00;99.90
27779;DHT22;30234;48.090;11.464;2022-10-16T02:18:07;11.10;99.90
27779;DHT22;30234;48.090;11.464;2022-10-16T02:22:10;11.10;99.90
27779;DHT22;30234;48.090;11.464;2022-10-16T02:26:33;11.20;99.90
27779;DHT22;30234;48.090;11.464;2022-10-16T02:31:06;11.30;99.90
27779;DHT22;30234;48.090;11.464;2022-10-16T02:35:06;11.50;99.90
27779;DHT22;30234;48.090;11.464;2022-10-16T02:39:08;11.50;99.90
27779;DHT22;30234;48.090;11.464;2022-10-16T02:43:10;12.50;99.90
27779;DHT22;30234;48.090;11.464;2022-10-16T02:47:11;11.40;99.90
27779;DHT22;30234;48.090;11.464;2022-10-16T02:51:12;12.20;99.90
27779;DHT22;30234;48.090;11.464;2022-10-16T02:55:14;11.20;99.90
27779;DHT22;30234;48.090;11.464;2022-10-16T02:59:15;11.30;99.90
27779;DHT22;30234;48.090;11.464;2022-10-16T03:03:16;11.20;99.90
27779;DHT22;30234;48.090;11.464;2022-10-16T03:07:16;12.00;99.90
27779;DHT22;30234;48.090;11.464;2022-10-16T03:11:17;11.70;99.90
27779;DHT22;30234;48.090;11.464;2022-10-16T03:15:18;11.20;99.90
27779;DHT22;30234;48.090;11.464;2022-10-16T03:19:19;11.00;99.90
27779;DHT22;30234;48.090;11.464;2022-10-16T03:23:20;10.90;99.90
27779;DHT22;30234;48.090;11.464;2022-10-16T03:27:21;10.90;99.90
27779;DHT22;30234;48.090;11.464;2022-10-16T03:31:22;10.90;99.90
27779;DHT22;30234;48.090;11.464;2022-10-16T03:35:23;12.40;99.90
27779;DHT22;30234;48.090;11.464;2022-10-16T03:39:24;11.40;99.90
27779;DHT22;30234;48.090;11.464;2022-10-16T03:43:25;11.30;99.90
27779;DHT22;30234;48.090;11.464;2022-10-16T03:47:26;12.80;99.90
27779;DHT22;30234;48.090;11.464;2022-10-16T03:51:27;11.70;99.90
27779;DHT22;30234;48.090;11.464;2022-10-16T03:55:28;11.80;99.90
27779;DHT22;30234;48.090;11.464;2022-10-16T03:59:28;11.80;99.90
27779;DHT22;30234;48.090;11.464;2022-10-16T04:03:29;12.00;99.90
27779;DHT22;30234;48.090;11.464;2022-10-16T04:07:30;12.00;99.90
27779;DHT22;30234;48.090;11.464;2022-10-16T04:11:31;12.00;99.90
27779;DHT22;30234;48.090;11.464;2022-10-16T04:15:31;12.10;99.90
27779;DHT22;30234;48.090;11.464;2022-10-16T04:19:32;13.20;99.90
27779;DHT22;30234;48.090;11.464;2022-10-16T04:23:33;12.20;99.90
27779;DHT22;30234;48.090;11.464;2022-10-16T04:27:34;12.20;99.90
27779;DHT22;30234;48.090;11.464;2022-10-16T04:31:34;12.30;99.90
27779;DHT22;30234;48.090;11.464;2022-10-16T04:35:35;12.20;99.90
27779;DHT22;30234;48.090;11.464;2022-10-16T04:39:37;12.30;99.90
27779;DHT22;30234;48.090;11.464;2022-10-16T04:43:38;12.30;99.90
27779;DHT22;30234;48.090;11.464;2022-10-16T04:47:39;12.40;99.90
27779;DHT22;30234;48.090;11.464;2022-10-16T04:51:39;12.50;99.90
27779;DHT22;30234;48.090;11.464;2022-10-16T04:55:41;12.50;99.90
27779;DHT22;30234;48.090;11.464;2022-10-16T04:59:42;12.30;99.90
27779;DHT22;30234;48.090;11.464;2022-10-16T05:03:43;12.40;99.90
27779;DHT22;30234;48.090;11.464;2022-10-16T05:07:43;12.50;99.90
27779;DHT22;30234;48.090;11.464;2022-10-16T05:11:44;12.80;99.90
27779;DHT22;30234;48.090;11.464;2022-10-16T05:15:48;12.80;99.90
27779;DHT22;30234;48.090;11.464;2022-10-16T05:19:49;12.80;99.90
27779;DHT22;30234;48.090;11.464;2022-10-16T05:23:50;12.80;99.90
27779;DHT22;30234;48.090;11.464;2022-10-16T05:27:51;12.90;99.90
27779;DHT22;30234;48.090;11.464;2022-10-16T05:31:52;13.00;99.90
27779;DHT22;30234;48.090;11.464;2022-10-16T05:35:53;13.00;99.90
27779;DHT22;30234;48.090;11.464;2022-10-16T05:39:54;12.90;99.90
27779;DHT22;30234;48.090;11.464;2022-10-16T05:43:55;12.90;99.90
27779;DHT22;30234;48.090;11.464;2022-10-16T05:47:56;12.80;99.90
27779;DHT22;30234;48.090;11.464;2022-10-16T05:51:56;12.80;99.90
27779;DHT22;30234;48.090;11.464;2022-10-16T05:55:58;12.90;99.90
27779;DHT22;30234;48.090;11.464;2022-10-16T05:59:59;13.00;99.90
27779;DHT22;30234;48.090;11.464;2022-10-16T06:03:59;13.10;99.90
27779;DHT22;30234;48.090;11.464;2022-10-16T06:08:00;13.10;99.90
27779;DHT22;30234;48.090;11.464;2022-10-16T06:12:01;13.20;99.90
27779;DHT22;30234;48.090;11.464;2022-10-16T06:16:03;13.40;99.90
27779;DHT22;30234;48.090;11.464;2022-10-16T06:20:04;13.60;99.90
27779;DHT22;30234;48.090;11.464;2022-10-16T06:24:05;13.70;99.90
27779;DHT22;30234;48.090;11.464;2022-10-16T06:28:06;13.80;99.90
27779;DHT22;30234;48.090;11.464;2022-10-16T06:32:07;14.10;99.90
27779;DHT22;30234;48.090;11.464;2022-10-16T06:36:10;14.50;99.90
27779;DHT22;30234;48.090;11.464;2022-10-16T06:40:15;15.00;99.90
27779;DHT22;30234;48.090;11.464;2022-10-16T06:44:16;14.60;99.90
27779;DHT22;30234;48.090;11.464;2022-10-16T06:48:16;14.50;99.90
27779;DHT22;30234;48.090;11.464;2022-10-16T06:52:17;14.60;99.90
27779;DHT22;30234;48.090;11.464;2022-10-16T06:56:23;14.70;99.90
27779;DHT22;30234;48.090;11.464;2022-10-16T07:00:25;15.60;99.90
27779;DHT22;30234;48.090;11.464;2022-10-16T07:04:25;16.80;99.90
27779;DHT22;30234;48.090;11.464;2022-10-16T07:08:26;17.10;99.90
27779;DHT22;30234;48.090;11.464;2022-10-16T07:12:27;17.10;99.90
27779;DHT22;30234;48.090;11.464;2022-10-16T07:16:30;19.70;99.90
27779;DHT22;30234;48.090;11.464;2022-10-16T07:20:31;23.10;99.90
27779;DHT22;30234;48.090;11.464;2022-10-16T07:24:32;25.50;99.90
27779;DHT22;30234;48.090;11.464;2022-10-16T07:28:34;27.00;99.90
27779;DHT22;30234;48.090;11.464;2022-10-16T07:32:35;27.60;97.60
27779;DHT22;30234;48.090;11.464;2022-10-16T07:36:36;27.00;96.20
27779;DHT22;30234;48.090;11.464;2022-10-16T07:40:36;25.30;97.10
27779;DHT22;30234;48.090;11.464;2022-10-16T07:44:37;25.10;98.50
27779;DHT22;30234;48.090;11.464;2022-10-16T07:48:38;26.00;97.60
27779;DHT22;30234;48.090;11.464;2022-10-16T07:52:39;27.00;95.00
27779;DHT22;30234;48.090;11.464;2022-10-16T07:56:39;26.90;93.80
27779;DHT22;30234;48.090;11.464;2022-10-16T08:00:40;24.30;96.00
27779;DHT22;30234;48.090;11.464;2022-10-16T08:04:41;25.00;96.70
27779;DHT22;30234;48.090;11.464;2022-10-16T08:08:43;26.20;94.90
27779;DHT22;30234;48.090;11.464;2022-10-16T08:12:44;27.00;93.30
27779;DHT22;30234;48.090;11.464;2022-10-16T08:16:46;26.50;93.20
27779;DHT22;30234;48.090;11.464;2022-10-16T08:20:46;25.90;93.40
27779;DHT22;30234;48.090;11.464;2022-10-16T08:24:47;26.20;94.10
27779;DHT22;30234;48.090;11.464;2022-10-16T08:28:51;27.20;92.40
27779;DHT22;30234;48.090;11.464;2022-10-16T08:32:52;28.90;91.10
27779;DHT22;30234;48.090;11.464;2022-10-16T08:36:53;29.40;86.40
27779;DHT22;30234;48.090;11.464;2022-10-16T08:41:17;28.80;84.00
27779;DHT22;30234;48.090;11.464;2022-10-16T08:50:26;30.00;80.40
27779;DHT22;30234;48.090;11.464;2022-10-16T08:54:36;29.50;79.80
27779;DHT22;30234;48.090;11.464;2022-10-16T08:58:49;28.40;79.50
27779;DHT22;30234;48.090;11.464;2022-10-16T09:07:48;29.30;77.30
27779;DHT22;30234;48.090;11.464;2022-10-16T09:16:24;29.80;74.20
27779;DHT22;30234;48.090;11.464;2022-10-16T09:21:20;30.10;73.80
27779;DHT22;30234;48.090;11.464;2022-10-16T09:25:21;30.20;70.50
27779;DHT22;30234;48.090;11.464;2022-10-16T09:29:24;29.90;70.90
27779;DHT22;30234;48.090;11.464;2022-10-16T09:33:32;30.20;67.70
27779;DHT22;30234;48.090;11.464;2022-10-16T09:37:35;30.90;68.20
27779;DHT22;30234;48.090;11.464;2022-10-16T09:41:37;30.80;65.70
27779;DHT22;30234;48.090;11.464;2022-10-16T09:45:40;30.10;66.00
27779;DHT22;30234;48.090;11.464;2022-10-16T09:49:55;29.10;67.10
27779;DHT22;30234;48.090;11.464;2022-10-16T09:54:00;28.70;67.20
27779;DHT22;30234;48.090;11.464;2022-10-16T09:58:13;28.80;66.80
27779;DHT22;30234;48.090;11.464;2022-10-16T10:02:16;29.00;67.70
27779;DHT22;30234;48.090;11.464;2022-10-16T10:06:19;30.20;67.10
27779;DHT22;30234;48.090;11.464;2022-10-16T10:10:30;31.10;62.50
27779;DHT22;30234;48.090;11.464;2022-10-16T10:14:38;31.40;62.10
27779;DHT22;30234;48.090;11.464;2022-10-16T10:18:41;30.80;63.20
27779;DHT22;30234;48.090;11.464;2022-10-16T10:22:44;31.00;61.70
27779;DHT22;30234;48.090;11.464;2022-10-16T10:31:20;32.00;57.20
27779;DHT22;30234;48.090;11.464;2022-10-16T10:40:11;31.50;55.90
27779;DHT22;30234;48.090;11.464;2022-10-16T10:49:27;31.10;57.80
27779;DHT22;30234;48.090;11.464;2022-10-16T10:58:40;31.60;55.70
27779;DHT22;30234;48.090;11.464;2022-10-16T11:07:27;32.40;53.00
27779;DHT22;30234;48.090;11.464;2022-10-16T11:11:36;32.00;52.20
27779;DHT22;30234;48.090;11.464;2022-10-16T11:15:43;31.20;52.90
27779;DHT22;30234;48.090;11.464;2022-10-16T11:24:41;31.20;55.80
27779;DHT22;30234;48.090;11.464;2022-10-16T11:28:51;31.60;53.90
27779;DHT22;30234;48.090;11.464;2022-10-16T11:33:25;32.30;50.60
27779;DHT22;30234;48.090;11.464;2022-10-16T11:37:36;32.50;50.10
27779;DHT22;30234;48.090;11.464;2022-10-16T11:45:52;32.40;47.10
27779;DHT22;30234;48.090;11.464;2022-10-16T11:50:02;32.80;48.00
27779;DHT22;30234;48.090;11.464;2022-10-16T11:58:56;32.60;47.10
27779;DHT22;30234;48.090;11.464;2022-10-16T12:07:36;31.80;47.50
27779;DHT22;30234;48.090;11.464;2022-10-16T12:11:38;31.50;48.20
27779;DHT22;30234;48.090;11.464;2022-10-16T12:15:39;32.20;48.50
27779;DHT22;30234;48.090;11.464;2022-10-16T12:19:40;31.20;49.00
27779;DHT22;30234;48.090;11.464;2022-10-16T12:23:52;31.00;50.60
27779;DHT22;30234;48.090;11.464;2022-10-16T12:28:05;31.20;49.60
27779;DHT22;30234;48.090;11.464;2022-10-16T12:36:42;32.00;49.10
27779;DHT22;30234;48.090;11.464;2022-10-16T12:40:43;31.90;49.60
27779;DHT22;30234;48.090;11.464;2022-10-16T12:44:45;32.40;48.50
27779;DHT22;30234;48.090;11.464;2022-10-16T12:48:46;32.50;47.60
27779;DHT22;30234;48.090;11.464;2022-10-16T12:52:48;32.70;47.70
27779;DHT22;30234;48.090;11.464;2022-10-16T13:24:56;32.70;46.00
27779;DHT22;30234;48.090;11.464;2022-10-16T13:29:16;32.20;45.40
27779;DHT22;30234;48.090;11.464;2022-10-16T13:37:35;31.80;45.80
27779;DHT22;30234;48.090;11.464;2022-10-16T13:41:35;31.10;46.80
27779;DHT22;30234;48.090;11.464;2022-10-16T13:45:36;31.00;48.00
27779;DHT22;30234;48.090;11.464;2022-10-16T13:49:37;30.90;47.60
27779;DHT22;30234;48.090;11.464;2022-10-16T13:53:38;31.00;46.40
27779;DHT22;30234;48.090;11.464;2022-10-16T13:57:41;31.40;46.10
27779;DHT22;30234;48.090;11.464;2022-10-16T14:01:43;32.10;45.80
27779;DHT22;30234;48.090;11.464;2022-10-16T14:05:52;32.00;45.70
27779;DHT22;30234;48.090;11.464;2022-10-16T14:09:56;32.00;46.80
27779;DHT22;30234;48.090;11.464;2022-10-16T14:14:02;32.20;45.10
27779;DHT22;30234;48.090;11.464;2022-10-16T14:18:03;31.50;47.40
27779;DHT22;30234;48.090;11.464;2022-10-16T14:23:01;31.30;46.90
27779;DHT22;30234;48.090;11.464;2022-10-16T14:26:42;31.20;47.80
27779;DHT22;30234;48.090;11.464;2022-10-16T14:30:57;30.80;48.00
27779;DHT22;30234;48.090;11.464;2022-10-16T14:34:59;30.60;48.30
27779;DHT22;30234;48.090;11.464;2022-10-16T14:43:04;29.40;49.90
27779;DHT22;30234;48.090;11.464;2022-10-16T14:47:08;29.40;50.50
27779;DHT22;30234;48.090;11.464;2022-10-16T14:51:17;29.30;49.80
27779;DHT22;30234;48.090;11.464;2022-10-16T14:55:19;27.60;52.90
27779;DHT22;30234;48.090;11.464;2022-10-16T14:59:39;27.40;54.50
27779;DHT22;30234;48.090;11.464;2022-10-16T15:03:41;26.60;56.50
27779;DHT22;30234;48.090;11.464;2022-10-16T15:07:42;25.70;57.30
27779;DHT22;30234;48.090;11.464;2022-10-16T15:11:43;25.10;57.60
27779;DHT22;30234;48.090;11.464;2022-10-16T15:15:48;24.70;62.30
27779;DHT22;30234;48.090;11.464;2022-10-16T15:19:51;24.10;65.80
27779;DHT22;30234;48.090;11.464;2022-10-16T15:23:52;23.70;69.80
27779;DHT22;30234;48.090;11.464;2022-10-16T15:27:53;23.30;70.70
27779;DHT22;30234;48.090;11.464;2022-10-16T15:31:54;23.10;72.10
27779;DHT22;30234;48.090;11.464;2022-10-16T15:35:55;22.80;75.50
27779;DHT22;30234;48.090;11.464;2022-10-16T15:39:55;22.30;80.80
27779;DHT22;30234;48.090;11.464;2022-10-16T15:43:56;21.80;83.50
27779;DHT22;30234;48.090;11.464;2022-10-16T15:47:57;21.30;86.90
27779;DHT22;30234;48.090;11.464;2022-10-16T15:51:58;21.00;88.40
27779;DHT22;30234;48.090;11.464;2022-10-16T15:56:04;20.50;90.80
27779;DHT22;30234;48.090;11.464;2022-10-16T16:00:07;20.00;93.20
27779;DHT22;30234;48.090;11.464;2022-10-16T16:04:10;19.70;96.10
27779;DHT22;30234;48.090;11.464;2022-10-16T16:08:11;19.30;99.60
27779;DHT22;30234;48.090;11.464;2022-10-16T16:12:12;19.00;99.90
27779;DHT22;30234;48.090;11.464;2022-10-16T16:16:15;18.60;99.90
27779;DHT22;30234;48.090;11.464;2022-10-16T16:20:17;18.30;99.90
27779;DHT22;30234;48.090;11.464;2022-10-16T16:24:17;18.00;99.90
27779;DHT22;30234;48.090;11.464;2022-10-16T16:28:18;17.70;99.90
27779;DHT22;30234;48.090;11.464;2022-10-16T16:32:19;17.20;99.90
27779;DHT22;30234;48.090;11.464;2022-10-16T16:36:20;17.10;99.90
27779;DHT22;30234;48.090;11.464;2022-10-16T16:40:21;16.90;99.90
27779;DHT22;30234;48.090;11.464;2022-10-16T16:44:22;16.80;99.90
27779;DHT22;30234;48.090;11.464;2022-10-16T16:48:23;16.50;99.90
27779;DHT22;30234;48.090;11.464;2022-10-16T16:52:24;16.40;99.90
27779;DHT22;30234;48.090;11.464;2022-10-16T16:56:26;16.20;99.90
27779;DHT22;30234;48.090;11.464;2022-10-16T17:00:26;16.00;99.90
27779;DHT22;30234;48.090;11.464;2022-10-16T17:04:27;15.90;99.90
27779;DHT22;30234;48.090;11.464;2022-10-16T17:08:28;15.70;99.90
27779;DHT22;30234;48.090;11.464;2022-10-16T17:12:30;15.70;99.90
27779;DHT22;30234;48.090;11.464;2022-10-16T17:16:33;15.50;99.90
27779;DHT22;30234;48.090;11.464;2022-10-16T17:20:35;15.40;99.90
27779;DHT22;30234;48.090;11.464;2022-10-16T17:24:36;15.30;99.90
27779;DHT22;30234;48.090;11.464;2022-10-16T17:28:37;15.20;99.90
27779;DHT22;30234;48.090;11.464;2022-10-16T17:32:38;15.70;99.90
27779;DHT22;30234;48.090;11.464;2022-10-16T17:36:40;14.90;99.90
27779;DHT22;30234;48.090;11.464;2022-10-16T17:40:46;14.80;99.90
27779;DHT22;30234;48.090;11.464;2022-10-16T17:44:46;14.90;99.90
27779;DHT22;30234;48.090;11.464;2022-10-16T17:48:49;14.80;99.90
27779;DHT22;30234;48.090;11.464;2022-10-16T17:52:53;14.60;99.90
27779;DHT22;30234;48.090;11.464;2022-10-16T17:56:54;14.50;99.90
27779;DHT22;30234;48.090;11.464;2022-10-16T18:00:55;14.50;99.90
27779;DHT22;30234;48.090;11.464;2022-10-16T18:04:56;14.40;99.90
27779;DHT22;30234;48.090;11.464;2022-10-16T18:08:58;14.30;99.90
27779;DHT22;30234;48.090;11.464;2022-10-16T18:12:59;14.10;99.90
27779;DHT22;30234;48.090;11.464;2022-10-16T18:17:01;14.00;99.90
27779;DHT22;30234;48.090;11.464;2022-10-16T18:21:08;13.90;99.90
27779;DHT22;30234;48.090;11.464;2022-10-16T18:25:10;13.80;99.90
27779;DHT22;30234;48.090;11.464;2022-10-16T18:29:12;13.80;99.90
27779;DHT22;30234;48.090;11.464;2022-10-16T18:33:12;13.80;99.90
27779;DHT22;30234;48.090;11.464;2022-10-16T18:37:13;13.60;99.90
27779;DHT22;30234;48.090;11.464;2022-10-16T18:41:16;13.60;99.90
27779;DHT22;30234;48.090;11.464;2022-10-16T18:45:18;13.40;99.90
27779;DHT22;30234;48.090;11.464;2022-10-16T18:49:20;13.40;99.90
27779;DHT22;30234;48.090;11.464;2022-10-16T18:53:20;13.20;99.90
27779;DHT22;30234;48.090;11.464;2022-10-16T18:57:21;13.30;99.90
27779;DHT22;30234;48.090;11.464;2022-10-16T19:01:24;13.30;99.90
27779;DHT22;30234;48.090;11.464;2022-10-16T19:05:25;13.10;99.90
27779;DHT22;30234;48.090;11.464;2022-10-16T19:09:26;13.00;99.90
27779;DHT22;30234;48.090;11.464;2022-10-16T19:13:29;12.90;99.90
27779;DHT22;30234;48.090;11.464;2022-10-16T19:17:30;12.80;99.90
27779;DHT22;30234;48.090;11.464;2022-10-16T19:21:34;12.70;99.90
27779;DHT22;30234;48.090;11.464;2022-10-16T19:25:37;12.60;99.90
27779;DHT22;30234;48.090;11.464;2022-10-16T19:29:39;12.60;99.90
27779;DHT22;30234;48.090;11.464;2022-10-16T19:33:40;12.50;99.90
27779;DHT22;30234;48.090;11.464;2022-10-16T19:37:41;12.40;99.90
27779;DHT22;30234;48.090;11.464;2022-10-16T19:41:42;12.30;99.90
27779;DHT22;30234;48.090;11.464;2022-10-16T19:45:43;12.30;99.90
27779;DHT22;30234;48.090;11.464;2022-10-16T19:49:44;14.80;99.90
27779;DHT22;30234;48.090;11.464;2022-10-16T19:53:46;12.20;99.90
27779;DHT22;30234;48.090;11.464;2022-10-16T19:57:47;12.10;99.90
27779;DHT22;30234;48.090;11.464;2022-10-16T20:01:48;12.10;99.90
27779;DHT22;30234;48.090;11.464;2022-10-16T20:05:53;12.60;99.90
27779;DHT22;30234;48.090;11.464;2022-10-16T20:09:54;12.30;99.90
27779;DHT22;30234;48.090;11.464;2022-10-16T20:13:55;11.90;99.90
27779;DHT22;30234;48.090;11.464;2022-10-16T20:17:56;12.40;99.90
27779;DHT22;30234;48.090;11.464;2022-10-16T20:21:57;11.90;99.90
27779;DHT22;30234;48.090;11.464;2022-10-16T20:26:00;12.00;99.90
27779;DHT22;30234;48.090;11.464;2022-10-16T20:30:01;11.80;99.90
27779;DHT22;30234;48.090;11.464;2022-10-16T20:34:11;11.70;99.90
27779;DHT22;30234;48.090;11.464;2022-10-16T20:38:13;11.60;99.90
27779;DHT22;30234;48.090;11.464;2022-10-16T20:42:15;12.70;99.90
27779;DHT22;30234;48.090;11.464;2022-10-16T20:46:18;11.60;99.90
27779;DHT22;30234;48.090;11.464;2022-10-16T20:50:21;11.60;99.90
27779;DHT22;30234;48.090;11.464;2022-10-16T20:54:21;11.50;99.90
27779;DHT22;30234;48.090;11.464;2022-10-16T20:58:22;11.40;99.90
27779;DHT22;30234;48.090;11.464;2022-10-16T21:02:23;11.40;99.90
27779;DHT22;30234;48.090;11.464;2022-10-16T21:06:25;11.30;99.90
27779;DHT22;30234;48.090;11.464;2022-10-16T21:10:28;11.30;99.90
27779;DHT22;30234;48.090;11.464;2022-10-16T21:14:29;11.30;99.90
27779;DHT22;30234;48.090;11.464;2022-10-16T21:18:30;11.30;99.90
27779;DHT22;30234;48.090;11.464;2022-10-16T21:22:30;11.90;99.90
27779;DHT22;30234;48.090;11.464;2022-10-16T21:26:31;11.30;99.90
27779;DHT22;30234;48.090;11.464;2022-10-16T21:30:32;11.20;99.90
27779;DHT22;30234;48.090;11.464;2022-10-16T21:34:34;12.70;99.90
27779;DHT22;30234;48.090;11.464;2022-10-16T21:38:35;11.20;99.90
27779;DHT22;30234;48.090;11.464;2022-10-16T21:42:36;11.00;99.90
27779;DHT22;30234;48.090;11.464;2022-10-16T21:46:38;11.00;99.90
27779;DHT22;30234;48.090;11.464;2022-10-16T21:50:46;12.30;99.90
27779;DHT22;30234;48.090;11.464;2022-10-16T21:54:47;11.00;99.90
27779;DHT22;30234;48.090;11.464;2022-10-16T21:58:48;10.90;99.90
27779;DHT22;30234;48.090;11.464;2022-10-16T22:02:49;11.60;99.90
27779;DHT22;30234;48.090;11.464;2022-10-16T22:06:50;11.30;99.90
27779;DHT22;30234;48.090;11.464;2022-10-16T22:10:50;10.70;99.90
27779;DHT22;30234;48.090;11.464;2022-10-16T22:14:51;10.70;99.90
27779;DHT22;30234;48.090;11.464;2022-10-16T22:18:56;10.60;99.90
27779;DHT22;30234;48.090;11.464;2022-10-16T22:22:57;10.60;99.90
27779;DHT22;30234;48.090;11.464;2022-10-16T22:26:58;10.60;99.90
27779;DHT22;30234;48.090;11.464;2022-10-16T22:31:08;10.60;99.90
27779;DHT22;30234;48.090;11.464;2022-10-16T22:35:10;10.90;99.90
27779;DHT22;30234;48.090;11.464;2022-10-16T22:39:11;10.40;99.90
27779;DHT22;30234;48.090;11.464;2022-10-16T22:43:12;10.30;99.90
27779;DHT22;30234;48.090;11.464;2022-10-16T22:47:14;10.40;99.90
27779;DHT22;30234;48.090;11.464;2022-10-16T22:51:16;10.40;99.90
27779;DHT22;30234;48.090;11.464;2022-10-16T22:55:18;10.20;99.90
27779;DHT22;30234;48.090;11.464;2022-10-16T22:59:19;10.20;99.90
27779;DHT22;30234;48.090;11.464;2022-10-16T23:03:20;10.30;99.90
27779;DHT22;30234;48.090;11.464;2022-10-16T23:07:21;10.20;99.90
27779;DHT22;30234;48.090;11.464;2022-10-16T23:11:22;10.20;99.90
27779;DHT22;30234;48.090;11.464;2022-10-16T23:15:24;10.10;99.90
27779;DHT22;30234;48.090;11.464;2022-10-16T23:19:24;11.30;99.90
27779;DHT22;30234;48.090;11.464;2022-10-16T23:23:25;10.10;99.90
27779;DHT22;30234;48.090;11.464;2022-10-16T23:27:26;10.40;99.90
27779;DHT22;30234;48.090;11.464;2022-10-16T23:31:30;10.00;99.90
27779;DHT22;30234;48.090;11.464;2022-10-16T23:35:31;9.90;99.90
27779;DHT22;30234;48.090;11.464;2022-10-16T23:39:32;10.00;99.90
27779;DHT22;30234;48.090;11.464;2022-10-16T23:43:33;10.00;99.90
27779;DHT22;30234;48.090;11.464;2022-10-16T23:47:34;10.00;99.90
27779;DHT22;30234;48.090;11.464;2022-10-16T23:51:35;9.80;99.90
27779;DHT22;30234;48.090;11.464;2022-10-16T23:55:36;9.70;99.90
27779;DHT22;30234;48.090;11.464;2022-10-16T23:59:36;9.70;99.90
